sensor_id;sensor_type;location;lat;lon;timestamp;P1;durP1;ratioP1;P2;durP2;ratioP2
47617;SDS011;33336;36.728;-4.414;2023-02-15T00:04:37;19.83;;;6.30;;
47617;SDS011;33336;36.728;-4.414;2023-02-15T00:09:50;18.08;;;6.88;;
47617;SDS011;33336;36.728;-4.414;2023-02-15T00:14:54;21.67;;;8.18;;
47617;SDS011;33336;36.728;-4.414;2023-02-15T00:19:58;25.58;;;7.68;;
47617;SDS011;33336;36.728;-4.414;2023-02-15T00:25:01;13.82;;;6.32;;
47617;SDS011;33336;36.728;-4.414;2023-02-15T00:30:09;15.45;;;7.03;;
47617;SDS011;33336;36.728;-4.414;2023-02-15T00:35:12;19.75;;;7.18;;
47617;SDS011;33336;36.728;-4.414;2023-02-15T00:40:17;17.15;;;6.45;;
47617;SDS011;33336;36.728;-4.414;2023-02-15T00:45:21;19.60;;;6.32;;
47617;SDS011;33336;36.728;-4.414;2023-02-15T00:50:25;14.25;;;5.53;;
47617;SDS011;33336;36.728;-4.414;2023-02-15T00:55:28;14.10;;;4.45;;
47617;SDS011;33336;36.728;-4.414;2023-02-15T01:00:33;17.83;;;5.35;;
47617;SDS011;33336;36.728;-4.414;2023-02-15T01:05:36;10.95;;;4.32;;
47617;SDS011;33336;36.728;-4.414;2023-02-15T01:10:40;13.38;;;4.40;;
47617;SDS011;33336;36.728;-4.414;2023-02-15T01:15:46;14.90;;;4.50;;
47617;SDS011;33336;36.728;-4.414;2023-02-15T01:20:56;18.13;;;4.78;;
47617;SDS011;33336;36.728;-4.414;2023-02-15T01:26:01;11.30;;;4.10;;
47617;SDS011;33336;36.728;-4.414;2023-02-15T01:31:07;16.52;;;4.25;;
47617;SDS011;33336;36.728;-4.414;2023-02-15T01:36:10;19.55;;;4.18;;
47617;SDS011;33336;36.728;-4.414;2023-02-15T01:41:14;13.65;;;4.07;;
47617;SDS011;33336;36.728;-4.414;2023-02-15T01:46:28;14.40;;;3.85;;
47617;SDS011;33336;36.728;-4.414;2023-02-15T01:51:36;12.32;;;4.75;;
47617;SDS011;33336;36.728;-4.414;2023-02-15T01:56:41;21.00;;;4.40;;
47617;SDS011;33336;36.728;-4.414;2023-02-15T02:01:47;20.88;;;4.35;;
47617;SDS011;33336;36.728;-4.414;2023-02-15T02:06:51;10.25;;;4.05;;
47617;SDS011;33336;36.728;-4.414;2023-02-15T02:11:56;9.32;;;3.17;;
47617;SDS011;33336;36.728;-4.414;2023-02-15T02:17:02;13.27;;;4.40;;
47617;SDS011;33336;36.728;-4.414;2023-02-15T02:22:21;10.43;;;4.10;;
47617;SDS011;33336;36.728;-4.414;2023-02-15T02:27:49;16.63;;;4.03;;
47617;SDS011;33336;36.728;-4.414;2023-02-15T02:33:09;16.43;;;4.60;;
47617;SDS011;33336;36.728;-4.414;2023-02-15T02:38:33;13.23;;;3.60;;
47617;SDS011;33336;36.728;-4.414;2023-02-15T02:43:51;15.48;;;3.58;;
47617;SDS011;33336;36.728;-4.414;2023-02-15T02:48:58;11.98;;;3.95;;
47617;SDS011;33336;36.728;-4.414;2023-02-15T02:54:04;11.30;;;4.43;;
47617;SDS011;33336;36.728;-4.414;2023-02-15T02:59:09;12.40;;;3.95;;
47617;SDS011;33336;36.728;-4.414;2023-02-15T03:04:20;10.75;;;3.65;;
47617;SDS011;33336;36.728;-4.414;2023-02-15T03:09:29;10.93;;;3.75;;
47617;SDS011;33336;36.728;-4.414;2023-02-15T03:14:44;9.73;;;3.67;;
47617;SDS011;33336;36.728;-4.414;2023-02-15T03:19:51;13.88;;;4.05;;
47617;SDS011;33336;36.728;-4.414;2023-02-15T03:24:56;16.38;;;3.90;;
47617;SDS011;33336;36.728;-4.414;2023-02-15T03:30:04;14.27;;;3.80;;
47617;SDS011;33336;36.728;-4.414;2023-02-15T03:35:12;13.57;;;4.53;;
47617;SDS011;33336;36.728;-4.414;2023-02-15T03:40:16;12.30;;;3.83;;
47617;SDS011;33336;36.728;-4.414;2023-02-15T03:45:42;12.27;;;3.33;;
47617;SDS011;33336;36.728;-4.414;2023-02-15T03:50:57;19.58;;;5.20;;
47617;SDS011;33336;36.728;-4.414;2023-02-15T03:56:22;14.45;;;4.35;;
47617;SDS011;33336;36.728;-4.414;2023-02-15T04:01:26;11.02;;;4.22;;
47617;SDS011;33336;36.728;-4.414;2023-02-15T04:06:53;10.38;;;3.67;;
47617;SDS011;33336;36.728;-4.414;2023-02-15T04:11:56;11.50;;;4.13;;
47617;SDS011;33336;36.728;-4.414;2023-02-15T04:17:00;12.80;;;4.28;;
47617;SDS011;33336;36.728;-4.414;2023-02-15T04:22:04;13.43;;;4.22;;
47617;SDS011;33336;36.728;-4.414;2023-02-15T04:27:25;9.38;;;4.10;;
47617;SDS011;33336;36.728;-4.414;2023-02-15T04:32:28;9.48;;;4.05;;
47617;SDS011;33336;36.728;-4.414;2023-02-15T04:37:34;10.93;;;4.28;;
47617;SDS011;33336;36.728;-4.414;2023-02-15T04:42:37;10.35;;;3.80;;
47617;SDS011;33336;36.728;-4.414;2023-02-15T04:47:40;10.50;;;3.50;;
47617;SDS011;33336;36.728;-4.414;2023-02-15T04:52:44;10.65;;;4.20;;
47617;SDS011;33336;36.728;-4.414;2023-02-15T04:57:48;16.75;;;3.90;;
47617;SDS011;33336;36.728;-4.414;2023-02-15T05:02:51;20.60;;;4.22;;
47617;SDS011;33336;36.728;-4.414;2023-02-15T05:07:56;14.48;;;3.88;;
47617;SDS011;33336;36.728;-4.414;2023-02-15T05:12:58;18.42;;;4.25;;
47617;SDS011;33336;36.728;-4.414;2023-02-15T05:18:01;11.88;;;3.75;;
47617;SDS011;33336;36.728;-4.414;2023-02-15T05:23:06;8.80;;;3.65;;
47617;SDS011;33336;36.728;-4.414;2023-02-15T05:28:09;14.85;;;4.40;;
47617;SDS011;33336;36.728;-4.414;2023-02-15T05:33:22;10.98;;;3.90;;
47617;SDS011;33336;36.728;-4.414;2023-02-15T05:38:27;11.60;;;3.63;;
47617;SDS011;33336;36.728;-4.414;2023-02-15T05:43:30;9.45;;;4.20;;
47617;SDS011;33336;36.728;-4.414;2023-02-15T05:48:33;12.45;;;4.28;;
47617;SDS011;33336;36.728;-4.414;2023-02-15T05:53:38;11.02;;;4.50;;
47617;SDS011;33336;36.728;-4.414;2023-02-15T05:58:42;12.05;;;3.63;;
47617;SDS011;33336;36.728;-4.414;2023-02-15T06:03:45;11.05;;;4.25;;
47617;SDS011;33336;36.728;-4.414;2023-02-15T06:08:49;10.82;;;3.95;;
47617;SDS011;33336;36.728;-4.414;2023-02-15T06:13:52;18.40;;;4.43;;
47617;SDS011;33336;36.728;-4.414;2023-02-15T06:18:55;12.45;;;4.82;;
47617;SDS011;33336;36.728;-4.414;2023-02-15T06:24:01;15.15;;;5.75;;
47617;SDS011;33336;36.728;-4.414;2023-02-15T06:29:04;8.18;;;4.85;;
47617;SDS011;33336;36.728;-4.414;2023-02-15T06:34:07;8.45;;;4.55;;
47617;SDS011;33336;36.728;-4.414;2023-02-15T06:39:12;11.43;;;4.47;;
47617;SDS011;33336;36.728;-4.414;2023-02-15T06:44:15;18.13;;;4.93;;
47617;SDS011;33336;36.728;-4.414;2023-02-15T06:49:18;10.88;;;3.97;;
47617;SDS011;33336;36.728;-4.414;2023-02-15T06:54:22;15.50;;;4.78;;
47617;SDS011;33336;36.728;-4.414;2023-02-15T06:59:26;11.35;;;3.92;;
47617;SDS011;33336;36.728;-4.414;2023-02-15T07:04:29;9.60;;;4.15;;
47617;SDS011;33336;36.728;-4.414;2023-02-15T07:09:34;15.27;;;3.97;;
47617;SDS011;33336;36.728;-4.414;2023-02-15T07:14:37;13.07;;;4.22;;
47617;SDS011;33336;36.728;-4.414;2023-02-15T07:19:41;10.82;;;3.50;;
47617;SDS011;33336;36.728;-4.414;2023-02-15T07:24:45;8.25;;;3.60;;
47617;SDS011;33336;36.728;-4.414;2023-02-15T07:29:50;15.63;;;4.55;;
47617;SDS011;33336;36.728;-4.414;2023-02-15T07:34:53;14.90;;;4.50;;
47617;SDS011;33336;36.728;-4.414;2023-02-15T07:39:57;20.83;;;7.00;;
47617;SDS011;33336;36.728;-4.414;2023-02-15T07:45:00;14.98;;;4.70;;
47617;SDS011;33336;36.728;-4.414;2023-02-15T07:50:04;21.25;;;5.43;;
47617;SDS011;33336;36.728;-4.414;2023-02-15T07:55:09;15.80;;;4.57;;
47617;SDS011;33336;36.728;-4.414;2023-02-15T08:00:13;13.68;;;4.72;;
47617;SDS011;33336;36.728;-4.414;2023-02-15T08:05:17;18.00;;;5.82;;
47617;SDS011;33336;36.728;-4.414;2023-02-15T08:10:22;17.67;;;4.30;;
47617;SDS011;33336;36.728;-4.414;2023-02-15T08:15:47;7.60;;;3.53;;
47617;SDS011;33336;36.728;-4.414;2023-02-15T08:20:51;16.02;;;4.90;;
47617;SDS011;33336;36.728;-4.414;2023-02-15T08:25:55;12.30;;;3.35;;
47617;SDS011;33336;36.728;-4.414;2023-02-15T08:31:05;12.07;;;3.72;;
47617;SDS011;33336;36.728;-4.414;2023-02-15T08:36:09;9.90;;;4.60;;
47617;SDS011;33336;36.728;-4.414;2023-02-15T08:41:17;16.75;;;3.65;;
47617;SDS011;33336;36.728;-4.414;2023-02-15T08:46:22;14.33;;;4.03;;
47617;SDS011;33336;36.728;-4.414;2023-02-15T08:51:27;9.48;;;3.90;;
47617;SDS011;33336;36.728;-4.414;2023-02-15T08:56:33;14.55;;;4.05;;
47617;SDS011;33336;36.728;-4.414;2023-02-15T09:01:37;6.70;;;3.30;;
47617;SDS011;33336;36.728;-4.414;2023-02-15T09:06:40;9.25;;;4.40;;
47617;SDS011;33336;36.728;-4.414;2023-02-15T09:11:46;11.02;;;3.88;;
47617;SDS011;33336;36.728;-4.414;2023-02-15T09:16:51;12.80;;;4.65;;
47617;SDS011;33336;36.728;-4.414;2023-02-15T09:21:54;9.57;;;4.32;;
47617;SDS011;33336;36.728;-4.414;2023-02-15T09:27:00;11.70;;;4.43;;
47617;SDS011;33336;36.728;-4.414;2023-02-15T09:32:03;15.57;;;4.53;;
47617;SDS011;33336;36.728;-4.414;2023-02-15T09:37:07;10.82;;;4.43;;
47617;SDS011;33336;36.728;-4.414;2023-02-15T09:42:21;15.75;;;4.13;;
47617;SDS011;33336;36.728;-4.414;2023-02-15T09:48:01;14.57;;;3.60;;
47617;SDS011;33336;36.728;-4.414;2023-02-15T09:53:27;12.48;;;4.00;;
47617;SDS011;33336;36.728;-4.414;2023-02-15T09:58:44;17.73;;;5.45;;
47617;SDS011;33336;36.728;-4.414;2023-02-15T10:04:08;15.88;;;4.82;;
47617;SDS011;33336;36.728;-4.414;2023-02-15T10:09:33;22.45;;;5.32;;
47617;SDS011;33336;36.728;-4.414;2023-02-15T10:14:55;21.25;;;6.47;;
47617;SDS011;33336;36.728;-4.414;2023-02-15T10:20:17;19.05;;;7.20;;
47617;SDS011;33336;36.728;-4.414;2023-02-15T10:25:31;22.58;;;7.22;;
47617;SDS011;33336;36.728;-4.414;2023-02-15T10:30:46;21.75;;;8.23;;
47617;SDS011;33336;36.728;-4.414;2023-02-15T10:35:52;27.95;;;8.70;;
47617;SDS011;33336;36.728;-4.414;2023-02-15T10:41:08;17.30;;;6.38;;
47617;SDS011;33336;36.728;-4.414;2023-02-15T10:46:25;30.05;;;7.88;;
47617;SDS011;33336;36.728;-4.414;2023-02-15T10:51:40;22.10;;;6.88;;
47617;SDS011;33336;36.728;-4.414;2023-02-15T10:56:55;15.60;;;5.68;;
47617;SDS011;33336;36.728;-4.414;2023-02-15T11:02:10;19.98;;;4.22;;
47617;SDS011;33336;36.728;-4.414;2023-02-15T11:07:20;13.88;;;3.80;;
47617;SDS011;33336;36.728;-4.414;2023-02-15T11:12:28;17.17;;;4.40;;
47617;SDS011;33336;36.728;-4.414;2023-02-15T11:17:36;20.80;;;4.05;;
47617;SDS011;33336;36.728;-4.414;2023-02-15T11:22:43;17.75;;;3.80;;
47617;SDS011;33336;36.728;-4.414;2023-02-15T11:27:51;17.15;;;3.70;;
47617;SDS011;33336;36.728;-4.414;2023-02-15T11:32:58;21.38;;;4.40;;
47617;SDS011;33336;36.728;-4.414;2023-02-15T11:38:05;15.20;;;4.03;;
47617;SDS011;33336;36.728;-4.414;2023-02-15T11:43:16;16.75;;;4.25;;
47617;SDS011;33336;36.728;-4.414;2023-02-15T11:48:25;6.45;;;3.30;;
47617;SDS011;33336;36.728;-4.414;2023-02-15T11:53:31;20.42;;;4.80;;
47617;SDS011;33336;36.728;-4.414;2023-02-15T11:58:36;17.58;;;3.80;;
47617;SDS011;33336;36.728;-4.414;2023-02-15T12:08:51;22.25;;;5.05;;
47617;SDS011;33336;36.728;-4.414;2023-02-15T12:13:59;92.00;;;13.30;;
47617;SDS011;33336;36.728;-4.414;2023-02-15T12:19:04;33.25;;;4.63;;
47617;SDS011;33336;36.728;-4.414;2023-02-15T12:24:17;18.77;;;5.00;;
47617;SDS011;33336;36.728;-4.414;2023-02-15T12:29:23;29.63;;;5.13;;
47617;SDS011;33336;36.728;-4.414;2023-02-15T12:34:31;23.83;;;4.57;;
47617;SDS011;33336;36.728;-4.414;2023-02-15T12:39:41;29.38;;;5.80;;
47617;SDS011;33336;36.728;-4.414;2023-02-15T12:44:58;33.00;;;5.78;;
47617;SDS011;33336;36.728;-4.414;2023-02-15T12:50:12;17.50;;;4.18;;
47617;SDS011;33336;36.728;-4.414;2023-02-15T12:55:21;20.63;;;4.47;;
47617;SDS011;33336;36.728;-4.414;2023-02-15T13:00:27;15.50;;;4.40;;
47617;SDS011;33336;36.728;-4.414;2023-02-15T13:05:35;20.85;;;4.35;;
47617;SDS011;33336;36.728;-4.414;2023-02-15T13:10:41;13.23;;;3.83;;
47617;SDS011;33336;36.728;-4.414;2023-02-15T13:15:54;21.83;;;4.57;;
47617;SDS011;33336;36.728;-4.414;2023-02-15T13:21:06;21.77;;;4.90;;
47617;SDS011;33336;36.728;-4.414;2023-02-15T13:26:14;18.83;;;5.13;;
47617;SDS011;33336;36.728;-4.414;2023-02-15T13:31:23;17.42;;;3.75;;
47617;SDS011;33336;36.728;-4.414;2023-02-15T13:36:36;21.25;;;4.93;;
47617;SDS011;33336;36.728;-4.414;2023-02-15T13:41:50;16.77;;;5.18;;
47617;SDS011;33336;36.728;-4.414;2023-02-15T13:47:08;30.27;;;4.78;;
47617;SDS011;33336;36.728;-4.414;2023-02-15T13:52:21;28.95;;;5.18;;
47617;SDS011;33336;36.728;-4.414;2023-02-15T13:57:32;18.27;;;5.03;;
47617;SDS011;33336;36.728;-4.414;2023-02-15T14:03:04;31.38;;;5.50;;
47617;SDS011;33336;36.728;-4.414;2023-02-15T14:08:20;19.38;;;5.38;;
47617;SDS011;33336;36.728;-4.414;2023-02-15T14:13:45;28.95;;;6.25;;
47617;SDS011;33336;36.728;-4.414;2023-02-15T14:19:16;39.35;;;7.40;;
47617;SDS011;33336;36.728;-4.414;2023-02-15T14:24:29;37.13;;;6.15;;
47617;SDS011;33336;36.728;-4.414;2023-02-15T14:29:45;34.03;;;6.45;;
47617;SDS011;33336;36.728;-4.414;2023-02-15T14:34:54;30.85;;;6.82;;
47617;SDS011;33336;36.728;-4.414;2023-02-15T14:40:00;22.33;;;4.60;;
47617;SDS011;33336;36.728;-4.414;2023-02-15T14:45:27;29.20;;;6.47;;
47617;SDS011;33336;36.728;-4.414;2023-02-15T14:50:37;30.02;;;5.03;;
47617;SDS011;33336;36.728;-4.414;2023-02-15T14:55:46;22.42;;;5.05;;
47617;SDS011;33336;36.728;-4.414;2023-02-15T15:00:50;26.73;;;4.82;;
47617;SDS011;33336;36.728;-4.414;2023-02-15T15:05:54;25.27;;;5.50;;
47617;SDS011;33336;36.728;-4.414;2023-02-15T15:16:50;22.13;;;5.15;;
47617;SDS011;33336;36.728;-4.414;2023-02-15T15:21:54;29.75;;;5.70;;
47617;SDS011;33336;36.728;-4.414;2023-02-15T15:32:36;22.58;;;4.03;;
47617;SDS011;33336;36.728;-4.414;2023-02-15T15:37:48;19.70;;;5.63;;
47617;SDS011;33336;36.728;-4.414;2023-02-15T15:48:39;23.47;;;4.80;;
47617;SDS011;33336;36.728;-4.414;2023-02-15T15:58:50;20.40;;;4.13;;
47617;SDS011;33336;36.728;-4.414;2023-02-15T16:03:57;13.50;;;4.07;;
47617;SDS011;33336;36.728;-4.414;2023-02-15T16:09:11;16.55;;;4.55;;
47617;SDS011;33336;36.728;-4.414;2023-02-15T16:14:16;16.95;;;4.28;;
47617;SDS011;33336;36.728;-4.414;2023-02-15T16:19:28;17.40;;;4.32;;
47617;SDS011;33336;36.728;-4.414;2023-02-15T16:24:37;18.60;;;4.53;;
47617;SDS011;33336;36.728;-4.414;2023-02-15T16:29:48;17.05;;;4.20;;
47617;SDS011;33336;36.728;-4.414;2023-02-15T16:34:56;17.83;;;4.63;;
47617;SDS011;33336;36.728;-4.414;2023-02-15T16:40:01;12.70;;;4.10;;
47617;SDS011;33336;36.728;-4.414;2023-02-15T16:45:05;14.00;;;3.90;;
47617;SDS011;33336;36.728;-4.414;2023-02-15T16:50:17;23.42;;;4.10;;
47617;SDS011;33336;36.728;-4.414;2023-02-15T16:55:23;12.63;;;4.13;;
47617;SDS011;33336;36.728;-4.414;2023-02-15T17:00:30;25.00;;;4.82;;
47617;SDS011;33336;36.728;-4.414;2023-02-15T17:05:41;13.57;;;3.88;;
47617;SDS011;33336;36.728;-4.414;2023-02-15T17:11:00;18.73;;;4.53;;
47617;SDS011;33336;36.728;-4.414;2023-02-15T17:16:22;18.30;;;3.75;;
47617;SDS011;33336;36.728;-4.414;2023-02-15T17:21:40;18.30;;;4.53;;
47617;SDS011;33336;36.728;-4.414;2023-02-15T17:26:49;23.00;;;4.68;;
47617;SDS011;33336;36.728;-4.414;2023-02-15T17:32:02;16.98;;;4.32;;
47617;SDS011;33336;36.728;-4.414;2023-02-15T17:37:10;13.57;;;4.00;;
47617;SDS011;33336;36.728;-4.414;2023-02-15T17:42:16;19.42;;;4.40;;
47617;SDS011;33336;36.728;-4.414;2023-02-15T17:47:19;19.33;;;5.13;;
47617;SDS011;33336;36.728;-4.414;2023-02-15T17:52:29;18.17;;;4.05;;
47617;SDS011;33336;36.728;-4.414;2023-02-15T17:57:32;21.95;;;5.13;;
47617;SDS011;33336;36.728;-4.414;2023-02-15T18:02:36;15.23;;;3.53;;
47617;SDS011;33336;36.728;-4.414;2023-02-15T18:07:58;22.58;;;4.88;;
47617;SDS011;33336;36.728;-4.414;2023-02-15T18:13:18;21.05;;;4.95;;
47617;SDS011;33336;36.728;-4.414;2023-02-15T18:18:21;15.05;;;4.25;;
47617;SDS011;33336;36.728;-4.414;2023-02-15T18:23:26;18.88;;;4.35;;
47617;SDS011;33336;36.728;-4.414;2023-02-15T18:28:31;20.80;;;6.13;;
47617;SDS011;33336;36.728;-4.414;2023-02-15T18:33:37;20.05;;;5.35;;
47617;SDS011;33336;36.728;-4.414;2023-02-15T18:38:43;19.35;;;4.75;;
47617;SDS011;33336;36.728;-4.414;2023-02-15T18:43:46;19.27;;;4.72;;
47617;SDS011;33336;36.728;-4.414;2023-02-15T18:48:49;12.40;;;3.85;;
47617;SDS011;33336;36.728;-4.414;2023-02-15T18:53:54;18.45;;;4.07;;
47617;SDS011;33336;36.728;-4.414;2023-02-15T18:59:03;15.10;;;4.20;;
47617;SDS011;33336;36.728;-4.414;2023-02-15T19:04:06;33.20;;;5.68;;
47617;SDS011;33336;36.728;-4.414;2023-02-15T19:09:11;17.50;;;3.50;;
47617;SDS011;33336;36.728;-4.414;2023-02-15T19:14:27;24.05;;;4.03;;
47617;SDS011;33336;36.728;-4.414;2023-02-15T19:19:31;30.42;;;5.97;;
47617;SDS011;33336;36.728;-4.414;2023-02-15T19:24:36;27.63;;;6.13;;
47617;SDS011;33336;36.728;-4.414;2023-02-15T19:29:41;23.33;;;4.68;;
47617;SDS011;33336;36.728;-4.414;2023-02-15T19:34:48;28.13;;;4.38;;
47617;SDS011;33336;36.728;-4.414;2023-02-15T19:39:52;21.23;;;4.85;;
47617;SDS011;33336;36.728;-4.414;2023-02-15T19:44:56;21.73;;;5.30;;
47617;SDS011;33336;36.728;-4.414;2023-02-15T19:50:02;26.02;;;5.50;;
47617;SDS011;33336;36.728;-4.414;2023-02-15T19:55:10;26.00;;;5.47;;
47617;SDS011;33336;36.728;-4.414;2023-02-15T20:00:19;25.48;;;5.35;;
47617;SDS011;33336;36.728;-4.414;2023-02-15T20:05:23;25.08;;;6.55;;
47617;SDS011;33336;36.728;-4.414;2023-02-15T20:10:29;27.13;;;6.95;;
47617;SDS011;33336;36.728;-4.414;2023-02-15T20:15:33;27.45;;;6.32;;
47617;SDS011;33336;36.728;-4.414;2023-02-15T20:20:38;24.67;;;6.95;;
47617;SDS011;33336;36.728;-4.414;2023-02-15T20:25:45;31.65;;;8.00;;
47617;SDS011;33336;36.728;-4.414;2023-02-15T20:30:49;37.55;;;8.02;;
47617;SDS011;33336;36.728;-4.414;2023-02-15T20:35:53;28.30;;;6.40;;
47617;SDS011;33336;36.728;-4.414;2023-02-15T20:40:58;27.42;;;7.70;;
47617;SDS011;33336;36.728;-4.414;2023-02-15T20:46:21;44.42;;;8.95;;
47617;SDS011;33336;36.728;-4.414;2023-02-15T20:51:25;40.03;;;7.40;;
47617;SDS011;33336;36.728;-4.414;2023-02-15T20:56:29;30.48;;;8.48;;
47617;SDS011;33336;36.728;-4.414;2023-02-15T21:01:34;47.08;;;9.80;;
47617;SDS011;33336;36.728;-4.414;2023-02-15T21:06:38;43.55;;;9.80;;
47617;SDS011;33336;36.728;-4.414;2023-02-15T21:11:42;38.63;;;11.43;;
47617;SDS011;33336;36.728;-4.414;2023-02-15T21:16:46;39.63;;;8.90;;
47617;SDS011;33336;36.728;-4.414;2023-02-15T21:21:50;38.53;;;7.75;;
47617;SDS011;33336;36.728;-4.414;2023-02-15T21:27:01;32.67;;;8.93;;
47617;SDS011;33336;36.728;-4.414;2023-02-15T21:32:08;31.58;;;11.50;;
47617;SDS011;33336;36.728;-4.414;2023-02-15T21:37:18;36.33;;;12.90;;
47617;SDS011;33336;36.728;-4.414;2023-02-15T21:42:32;27.85;;;11.60;;
47617;SDS011;33336;36.728;-4.414;2023-02-15T21:47:53;31.35;;;13.65;;
47617;SDS011;33336;36.728;-4.414;2023-02-15T21:52:58;29.08;;;9.80;;
47617;SDS011;33336;36.728;-4.414;2023-02-15T21:58:08;28.98;;;10.07;;
47617;SDS011;33336;36.728;-4.414;2023-02-15T22:03:18;32.63;;;10.40;;
47617;SDS011;33336;36.728;-4.414;2023-02-15T22:08:21;36.97;;;9.75;;
47617;SDS011;33336;36.728;-4.414;2023-02-15T22:13:26;37.70;;;12.57;;
47617;SDS011;33336;36.728;-4.414;2023-02-15T22:18:31;31.08;;;9.45;;
47617;SDS011;33336;36.728;-4.414;2023-02-15T22:23:35;27.52;;;8.68;;
47617;SDS011;33336;36.728;-4.414;2023-02-15T22:28:41;34.10;;;9.88;;
47617;SDS011;33336;36.728;-4.414;2023-02-15T22:33:44;34.25;;;9.00;;
47617;SDS011;33336;36.728;-4.414;2023-02-15T22:38:52;35.88;;;8.85;;
47617;SDS011;33336;36.728;-4.414;2023-02-15T22:43:57;35.25;;;7.85;;
47617;SDS011;33336;36.728;-4.414;2023-02-15T22:49:01;30.15;;;8.00;;
47617;SDS011;33336;36.728;-4.414;2023-02-15T22:54:04;37.50;;;8.82;;
47617;SDS011;33336;36.728;-4.414;2023-02-15T22:59:12;30.75;;;8.20;;
47617;SDS011;33336;36.728;-4.414;2023-02-15T23:04:21;31.80;;;9.10;;
47617;SDS011;33336;36.728;-4.414;2023-02-15T23:09:26;24.65;;;7.97;;
47617;SDS011;33336;36.728;-4.414;2023-02-15T23:14:30;33.55;;;8.50;;
47617;SDS011;33336;36.728;-4.414;2023-02-15T23:19:35;23.58;;;7.40;;
47617;SDS011;33336;36.728;-4.414;2023-02-15T23:24:37;18.10;;;6.40;;
47617;SDS011;33336;36.728;-4.414;2023-02-15T23:29:42;20.55;;;6.43;;
47617;SDS011;33336;36.728;-4.414;2023-02-15T23:34:45;16.35;;;4.80;;
47617;SDS011;33336;36.728;-4.414;2023-02-15T23:39:50;19.83;;;4.82;;
47617;SDS011;33336;36.728;-4.414;2023-02-15T23:45:16;21.38;;;5.20;;
47617;SDS011;33336;36.728;-4.414;2023-02-15T23:50:23;21.13;;;5.75;;
47617;SDS011;33336;36.728;-4.414;2023-02-15T23:55:31;19.02;;;5.55;;
